sensor_id;sensor_type;location;lat;lon;timestamp;P1;durP1;ratioP1;P2;durP2;ratioP2
74508;SDS011;62990;46.884;17.436;2022-09-01T00:00:43;6.72;;;2.40;;
74508;SDS011;62990;46.884;17.436;2022-09-01T00:03:50;7.93;;;2.70;;
74508;SDS011;62990;46.884;17.436;2022-09-01T00:06:56;7.40;;;2.50;;
74508;SDS011;62990;46.884;17.436;2022-09-01T00:10:02;6.40;;;2.70;;
74508;SDS011;62990;46.884;17.436;2022-09-01T00:13:11;7.65;;;2.70;;
74508;SDS011;62990;46.884;17.436;2022-09-01T00:19:44;7.07;;;2.40;;
74508;SDS011;62990;46.884;17.436;2022-09-01T00:22:49;6.80;;;2.63;;
74508;SDS011;62990;46.884;17.436;2022-09-01T00:25:53;6.25;;;2.75;;
74508;SDS011;62990;46.884;17.436;2022-09-01T00:28:57;6.88;;;2.50;;
74508;SDS011;62990;46.884;17.436;2022-09-01T00:32:02;5.85;;;2.40;;
74508;SDS011;62990;46.884;17.436;2022-09-01T00:35:06;7.00;;;2.77;;
74508;SDS011;62990;46.884;17.436;2022-09-01T00:38:11;7.03;;;2.70;;
74508;SDS011;62990;46.884;17.436;2022-09-01T00:41:23;6.20;;;2.55;;
74508;SDS011;62990;46.884;17.436;2022-09-01T00:44:28;6.88;;;2.55;;
74508;SDS011;62990;46.884;17.436;2022-09-01T00:47:33;6.32;;;2.67;;
74508;SDS011;62990;46.884;17.436;2022-09-01T00:50:39;6.50;;;2.30;;
74508;SDS011;62990;46.884;17.436;2022-09-01T00:53:49;6.30;;;2.43;;
74508;SDS011;62990;46.884;17.436;2022-09-01T00:56:54;7.18;;;2.47;;
74508;SDS011;62990;46.884;17.436;2022-09-01T00:59:59;6.20;;;2.28;;
74508;SDS011;62990;46.884;17.436;2022-09-01T01:03:09;6.47;;;2.38;;
74508;SDS011;62990;46.884;17.436;2022-09-01T01:06:14;7.47;;;2.53;;
74508;SDS011;62990;46.884;17.436;2022-09-01T01:09:21;6.50;;;2.80;;
74508;SDS011;62990;46.884;17.436;2022-09-01T01:12:25;7.13;;;2.63;;
74508;SDS011;62990;46.884;17.436;2022-09-01T01:15:31;6.93;;;2.30;;
74508;SDS011;62990;46.884;17.436;2022-09-01T01:18:35;8.25;;;2.55;;
74508;SDS011;62990;46.884;17.436;2022-09-01T01:21:41;8.33;;;2.67;;
74508;SDS011;62990;46.884;17.436;2022-09-01T01:25:05;6.07;;;2.20;;
74508;SDS011;62990;46.884;17.436;2022-09-01T01:28:10;7.65;;;2.97;;
74508;SDS011;62990;46.884;17.436;2022-09-01T01:31:17;7.35;;;2.45;;
74508;SDS011;62990;46.884;17.436;2022-09-01T01:34:24;7.03;;;2.63;;
74508;SDS011;62990;46.884;17.436;2022-09-01T01:37:28;7.07;;;2.80;;
74508;SDS011;62990;46.884;17.436;2022-09-01T01:40:36;7.03;;;2.47;;
74508;SDS011;62990;46.884;17.436;2022-09-01T01:43:41;7.28;;;2.90;;
74508;SDS011;62990;46.884;17.436;2022-09-01T01:46:46;6.90;;;2.45;;
74508;SDS011;62990;46.884;17.436;2022-09-01T01:49:52;6.20;;;2.50;;
74508;SDS011;62990;46.884;17.436;2022-09-01T01:52:55;6.70;;;2.80;;
74508;SDS011;62990;46.884;17.436;2022-09-01T01:56:02;6.70;;;2.50;;
74508;SDS011;62990;46.884;17.436;2022-09-01T01:59:09;6.15;;;2.47;;
74508;SDS011;62990;46.884;17.436;2022-09-01T02:02:17;6.80;;;2.17;;
74508;SDS011;62990;46.884;17.436;2022-09-01T02:05:25;5.35;;;1.98;;
74508;SDS011;62990;46.884;17.436;2022-09-01T02:08:30;7.27;;;2.17;;
74508;SDS011;62990;46.884;17.436;2022-09-01T02:11:36;5.80;;;2.30;;
74508;SDS011;62990;46.884;17.436;2022-09-01T02:14:42;6.22;;;2.30;;
74508;SDS011;62990;46.884;17.436;2022-09-01T02:17:46;6.53;;;2.25;;
74508;SDS011;62990;46.884;17.436;2022-09-01T02:20:50;6.60;;;2.20;;
74508;SDS011;62990;46.884;17.436;2022-09-01T02:23:57;5.87;;;2.10;;
74508;SDS011;62990;46.884;17.436;2022-09-01T02:27:06;6.57;;;2.50;;
74508;SDS011;62990;46.884;17.436;2022-09-01T02:30:12;5.78;;;2.17;;
74508;SDS011;62990;46.884;17.436;2022-09-01T02:33:16;5.53;;;2.08;;
74508;SDS011;62990;46.884;17.436;2022-09-01T02:36:23;5.95;;;2.60;;
74508;SDS011;62990;46.884;17.436;2022-09-01T02:39:28;6.67;;;2.30;;
74508;SDS011;62990;46.884;17.436;2022-09-01T02:42:37;6.03;;;2.20;;
74508;SDS011;62990;46.884;17.436;2022-09-01T02:45:44;5.97;;;2.20;;
74508;SDS011;62990;46.884;17.436;2022-09-01T02:48:48;5.70;;;2.35;;
74508;SDS011;62990;46.884;17.436;2022-09-01T02:51:53;6.30;;;2.80;;
74508;SDS011;62990;46.884;17.436;2022-09-01T02:55:00;5.93;;;2.43;;
74508;SDS011;62990;46.884;17.436;2022-09-01T02:58:05;6.50;;;2.70;;
74508;SDS011;62990;46.884;17.436;2022-09-01T03:01:16;7.45;;;2.60;;
74508;SDS011;62990;46.884;17.436;2022-09-01T03:04:26;7.70;;;2.92;;
74508;SDS011;62990;46.884;17.436;2022-09-01T03:07:36;6.88;;;2.90;;
74508;SDS011;62990;46.884;17.436;2022-09-01T03:10:43;6.13;;;2.57;;
74508;SDS011;62990;46.884;17.436;2022-09-01T03:13:49;7.60;;;2.50;;
74508;SDS011;62990;46.884;17.436;2022-09-01T03:16:53;8.23;;;2.75;;
74508;SDS011;62990;46.884;17.436;2022-09-01T03:19:58;10.73;;;3.13;;
74508;SDS011;62990;46.884;17.436;2022-09-01T03:23:03;9.18;;;2.92;;
74508;SDS011;62990;46.884;17.436;2022-09-01T03:26:09;8.37;;;3.17;;
74508;SDS011;62990;46.884;17.436;2022-09-01T03:29:14;8.47;;;3.20;;
74508;SDS011;62990;46.884;17.436;2022-09-01T03:32:18;19.35;;;3.80;;
74508;SDS011;62990;46.884;17.436;2022-09-01T03:35:22;8.98;;;2.80;;
74508;SDS011;62990;46.884;17.436;2022-09-01T03:38:26;12.80;;;3.47;;
74508;SDS011;62990;46.884;17.436;2022-09-01T03:41:30;8.00;;;3.07;;
74508;SDS011;62990;46.884;17.436;2022-09-01T03:44:36;8.27;;;2.90;;
74508;SDS011;62990;46.884;17.436;2022-09-01T03:47:42;7.97;;;2.63;;
74508;SDS011;62990;46.884;17.436;2022-09-01T03:50:45;10.07;;;3.00;;
74508;SDS011;62990;46.884;17.436;2022-09-01T03:53:50;8.13;;;2.50;;
74508;SDS011;62990;46.884;17.436;2022-09-01T03:56:56;7.40;;;2.53;;
74508;SDS011;62990;46.884;17.436;2022-09-01T04:00:05;6.93;;;2.80;;
74508;SDS011;62990;46.884;17.436;2022-09-01T04:03:16;6.00;;;2.67;;
74508;SDS011;62990;46.884;17.436;2022-09-01T04:06:30;8.05;;;3.03;;
74508;SDS011;62990;46.884;17.436;2022-09-01T04:09:33;7.20;;;2.55;;
74508;SDS011;62990;46.884;17.436;2022-09-01T04:12:38;6.97;;;2.57;;
74508;SDS011;62990;46.884;17.436;2022-09-01T04:15:43;7.30;;;2.90;;
74508;SDS011;62990;46.884;17.436;2022-09-01T04:18:46;6.38;;;2.75;;
74508;SDS011;62990;46.884;17.436;2022-09-01T04:21:52;6.70;;;2.75;;
74508;SDS011;62990;46.884;17.436;2022-09-01T04:24:59;6.43;;;2.65;;
74508;SDS011;62990;46.884;17.436;2022-09-01T04:28:02;7.07;;;2.70;;
74508;SDS011;62990;46.884;17.436;2022-09-01T04:31:17;6.83;;;2.40;;
74508;SDS011;62990;46.884;17.436;2022-09-01T04:34:24;6.43;;;2.75;;
74508;SDS011;62990;46.884;17.436;2022-09-01T04:37:28;7.30;;;2.63;;
74508;SDS011;62990;46.884;17.436;2022-09-01T04:40:36;7.45;;;2.65;;
74508;SDS011;62990;46.884;17.436;2022-09-01T04:43:41;7.43;;;2.67;;
74508;SDS011;62990;46.884;17.436;2022-09-01T04:46:47;6.20;;;2.60;;
74508;SDS011;62990;46.884;17.436;2022-09-01T04:49:52;7.50;;;2.50;;
74508;SDS011;62990;46.884;17.436;2022-09-01T04:53:02;7.13;;;2.20;;
74508;SDS011;62990;46.884;17.436;2022-09-01T04:56:37;7.82;;;2.20;;
74508;SDS011;62990;46.884;17.436;2022-09-01T05:00:00;6.27;;;1.77;;
74508;SDS011;62990;46.884;17.436;2022-09-01T05:03:08;7.13;;;2.03;;
74508;SDS011;62990;46.884;17.436;2022-09-01T05:06:34;5.70;;;1.60;;
74508;SDS011;62990;46.884;17.436;2022-09-01T05:09:40;5.45;;;1.70;;
74508;SDS011;62990;46.884;17.436;2022-09-01T05:12:51;5.55;;;1.58;;
74508;SDS011;62990;46.884;17.436;2022-09-01T05:15:59;5.20;;;1.50;;
74508;SDS011;62990;46.884;17.436;2022-09-01T05:19:05;6.67;;;1.53;;
74508;SDS011;62990;46.884;17.436;2022-09-01T05:22:11;5.00;;;1.40;;
74508;SDS011;62990;46.884;17.436;2022-09-01T05:25:20;5.43;;;1.40;;
74508;SDS011;62990;46.884;17.436;2022-09-01T05:28:24;5.20;;;1.60;;
74508;SDS011;62990;46.884;17.436;2022-09-01T05:31:29;5.20;;;1.40;;
74508;SDS011;62990;46.884;17.436;2022-09-01T05:34:40;4.77;;;1.60;;
74508;SDS011;62990;46.884;17.436;2022-09-01T05:37:44;5.03;;;1.55;;
74508;SDS011;62990;46.884;17.436;2022-09-01T05:40:54;5.15;;;1.40;;
74508;SDS011;62990;46.884;17.436;2022-09-01T05:43:58;5.20;;;1.60;;
74508;SDS011;62990;46.884;17.436;2022-09-01T05:47:05;4.50;;;1.27;;
74508;SDS011;62990;46.884;17.436;2022-09-01T05:50:21;5.40;;;1.50;;
74508;SDS011;62990;46.884;17.436;2022-09-01T05:53:25;5.75;;;1.85;;
74508;SDS011;62990;46.884;17.436;2022-09-01T05:56:32;5.32;;;1.60;;
74508;SDS011;62990;46.884;17.436;2022-09-01T05:59:35;5.60;;;1.63;;
74508;SDS011;62990;46.884;17.436;2022-09-01T06:02:48;5.40;;;1.97;;
74508;SDS011;62990;46.884;17.436;2022-09-01T06:06:00;5.77;;;2.13;;
74508;SDS011;62990;46.884;17.436;2022-09-01T06:09:05;6.60;;;2.08;;
74508;SDS011;62990;46.884;17.436;2022-09-01T06:12:10;5.45;;;1.90;;
74508;SDS011;62990;46.884;17.436;2022-09-01T06:15:19;5.68;;;2.20;;
74508;SDS011;62990;46.884;17.436;2022-09-01T06:18:26;6.03;;;2.10;;
74508;SDS011;62990;46.884;17.436;2022-09-01T06:21:33;6.43;;;2.20;;
74508;SDS011;62990;46.884;17.436;2022-09-01T06:24:37;5.70;;;2.20;;
74508;SDS011;62990;46.884;17.436;2022-09-01T06:27:46;6.88;;;2.15;;
74508;SDS011;62990;46.884;17.436;2022-09-01T06:30:50;6.13;;;2.10;;
74508;SDS011;62990;46.884;17.436;2022-09-01T06:33:54;6.03;;;2.30;;
74508;SDS011;62990;46.884;17.436;2022-09-01T06:36:59;7.07;;;2.60;;
74508;SDS011;62990;46.884;17.436;2022-09-01T06:40:03;7.15;;;2.67;;
74508;SDS011;62990;46.884;17.436;2022-09-01T06:43:12;7.13;;;2.60;;
74508;SDS011;62990;46.884;17.436;2022-09-01T06:46:23;6.32;;;2.20;;
74508;SDS011;62990;46.884;17.436;2022-09-01T06:49:35;6.57;;;2.40;;
74508;SDS011;62990;46.884;17.436;2022-09-01T06:52:47;8.33;;;2.90;;
74508;SDS011;62990;46.884;17.436;2022-09-01T06:56:22;6.72;;;2.55;;
74508;SDS011;62990;46.884;17.436;2022-09-01T06:59:32;7.15;;;2.67;;
74508;SDS011;62990;46.884;17.436;2022-09-01T07:02:38;6.90;;;2.40;;
74508;SDS011;62990;46.884;17.436;2022-09-01T07:05:54;6.13;;;2.20;;
74508;SDS011;62990;46.884;17.436;2022-09-01T07:09:28;8.03;;;2.10;;
74508;SDS011;62990;46.884;17.436;2022-09-01T07:13:10;5.93;;;2.08;;
74508;SDS011;62990;46.884;17.436;2022-09-01T07:16:21;6.35;;;2.30;;
74508;SDS011;62990;46.884;17.436;2022-09-01T07:19:37;6.70;;;2.20;;
74508;SDS011;62990;46.884;17.436;2022-09-01T07:22:57;5.63;;;2.10;;
74508;SDS011;62990;46.884;17.436;2022-09-01T07:26:23;5.90;;;2.30;;
74508;SDS011;62990;46.884;17.436;2022-09-01T07:29:28;5.90;;;2.20;;
74508;SDS011;62990;46.884;17.436;2022-09-01T07:32:34;5.88;;;1.88;;
74508;SDS011;62990;46.884;17.436;2022-09-01T07:35:50;5.65;;;2.00;;
74508;SDS011;62990;46.884;17.436;2022-09-01T07:39:16;7.37;;;2.00;;
74508;SDS011;62990;46.884;17.436;2022-09-01T07:43:09;7.63;;;2.00;;
74508;SDS011;62990;46.884;17.436;2022-09-01T07:46:38;5.30;;;1.90;;
74508;SDS011;62990;46.884;17.436;2022-09-01T07:49:47;6.18;;;1.90;;
74508;SDS011;62990;46.884;17.436;2022-09-01T07:53:11;5.20;;;1.40;;
74508;SDS011;62990;46.884;17.436;2022-09-01T07:56:18;5.73;;;1.90;;
74508;SDS011;62990;46.884;17.436;2022-09-01T07:59:25;5.60;;;1.90;;
74508;SDS011;62990;46.884;17.436;2022-09-01T08:02:39;6.53;;;1.88;;
74508;SDS011;62990;46.884;17.436;2022-09-01T08:05:47;5.65;;;1.83;;
74508;SDS011;62990;46.884;17.436;2022-09-01T08:08:55;5.18;;;1.50;;
74508;SDS011;62990;46.884;17.436;2022-09-01T08:12:03;5.73;;;2.00;;
74508;SDS011;62990;46.884;17.436;2022-09-01T08:15:13;5.80;;;2.00;;
74508;SDS011;62990;46.884;17.436;2022-09-01T08:18:38;5.82;;;1.98;;
74508;SDS011;62990;46.884;17.436;2022-09-01T08:22:02;6.07;;;2.05;;
74508;SDS011;62990;46.884;17.436;2022-09-01T08:25:39;6.28;;;2.00;;
74508;SDS011;62990;46.884;17.436;2022-09-01T08:28:45;5.83;;;2.17;;
74508;SDS011;62990;46.884;17.436;2022-09-01T08:32:05;6.33;;;2.00;;
74508;SDS011;62990;46.884;17.436;2022-09-01T08:35:08;5.35;;;2.00;;
74508;SDS011;62990;46.884;17.436;2022-09-01T08:38:14;5.75;;;1.90;;
74508;SDS011;62990;46.884;17.436;2022-09-01T08:41:22;6.57;;;2.00;;
74508;SDS011;62990;46.884;17.436;2022-09-01T08:44:38;5.83;;;2.23;;
74508;SDS011;62990;46.884;17.436;2022-09-01T08:47:52;5.63;;;2.23;;
74508;SDS011;62990;46.884;17.436;2022-09-01T08:51:19;5.97;;;2.30;;
74508;SDS011;62990;46.884;17.436;2022-09-01T08:54:38;7.90;;;2.80;;
74508;SDS011;62990;46.884;17.436;2022-09-01T08:57:48;6.72;;;3.17;;
74508;SDS011;62990;46.884;17.436;2022-09-01T09:01:03;9.00;;;3.60;;
74508;SDS011;62990;46.884;17.436;2022-09-01T09:04:19;7.83;;;3.30;;
74508;SDS011;62990;46.884;17.436;2022-09-01T09:07:39;8.73;;;3.80;;
74508;SDS011;62990;46.884;17.436;2022-09-01T09:10:54;8.48;;;4.25;;
74508;SDS011;62990;46.884;17.436;2022-09-01T09:14:02;8.50;;;4.22;;
74508;SDS011;62990;46.884;17.436;2022-09-01T09:17:12;8.07;;;4.27;;
74508;SDS011;62990;46.884;17.436;2022-09-01T09:20:19;8.83;;;4.43;;
74508;SDS011;62990;46.884;17.436;2022-09-01T09:23:24;8.20;;;4.10;;
74508;SDS011;62990;46.884;17.436;2022-09-01T09:26:31;7.90;;;4.05;;
74508;SDS011;62990;46.884;17.436;2022-09-01T09:29:52;10.38;;;4.68;;
74508;SDS011;62990;46.884;17.436;2022-09-01T09:32:58;8.87;;;4.10;;
74508;SDS011;62990;46.884;17.436;2022-09-01T09:36:31;8.03;;;4.33;;
74508;SDS011;62990;46.884;17.436;2022-09-01T09:39:37;8.38;;;4.28;;
74508;SDS011;62990;46.884;17.436;2022-09-01T09:42:42;9.32;;;4.47;;
74508;SDS011;62990;46.884;17.436;2022-09-01T09:46:19;7.65;;;4.40;;
74508;SDS011;62990;46.884;17.436;2022-09-01T09:49:29;8.30;;;4.60;;
74508;SDS011;62990;46.884;17.436;2022-09-01T09:52:38;7.70;;;4.60;;
74508;SDS011;62990;46.884;17.436;2022-09-01T09:56:00;7.70;;;4.43;;
74508;SDS011;62990;46.884;17.436;2022-09-01T09:59:15;8.35;;;4.93;;
74508;SDS011;62990;46.884;17.436;2022-09-01T10:02:41;8.85;;;4.38;;
74508;SDS011;62990;46.884;17.436;2022-09-01T10:05:47;8.73;;;5.10;;
74508;SDS011;62990;46.884;17.436;2022-09-01T10:08:54;9.43;;;4.90;;
74508;SDS011;62990;46.884;17.436;2022-09-01T10:11:58;8.60;;;4.40;;
74508;SDS011;62990;46.884;17.436;2022-09-01T10:15:10;9.52;;;5.30;;
74508;SDS011;62990;46.884;17.436;2022-09-01T10:18:17;8.18;;;5.43;;
74508;SDS011;62990;46.884;17.436;2022-09-01T10:21:32;9.40;;;5.30;;
74508;SDS011;62990;46.884;17.436;2022-09-01T10:24:39;9.07;;;5.10;;
74508;SDS011;62990;46.884;17.436;2022-09-01T10:27:47;9.18;;;5.30;;
74508;SDS011;62990;46.884;17.436;2022-09-01T10:30:59;8.25;;;5.13;;
74508;SDS011;62990;46.884;17.436;2022-09-01T10:34:10;8.02;;;4.60;;
74508;SDS011;62990;46.884;17.436;2022-09-01T10:37:20;7.83;;;4.80;;
74508;SDS011;62990;46.884;17.436;2022-09-01T10:40:39;7.87;;;4.60;;
74508;SDS011;62990;46.884;17.436;2022-09-01T10:44:11;8.93;;;4.72;;
74508;SDS011;62990;46.884;17.436;2022-09-01T10:47:23;9.73;;;4.47;;
74508;SDS011;62990;46.884;17.436;2022-09-01T10:50:31;9.87;;;4.90;;
74508;SDS011;62990;46.884;17.436;2022-09-01T10:53:37;8.63;;;4.50;;
74508;SDS011;62990;46.884;17.436;2022-09-01T10:56:43;7.38;;;4.80;;
74508;SDS011;62990;46.884;17.436;2022-09-01T10:59:54;7.88;;;3.60;;
74508;SDS011;62990;46.884;17.436;2022-09-01T11:10:55;7.33;;;3.87;;
74508;SDS011;62990;46.884;17.436;2022-09-01T11:14:04;8.05;;;4.25;;
74508;SDS011;62990;46.884;17.436;2022-09-01T11:17:21;8.85;;;3.50;;
74508;SDS011;62990;46.884;17.436;2022-09-01T11:20:28;7.90;;;3.65;;
74508;SDS011;62990;46.884;17.436;2022-09-01T11:23:35;8.03;;;3.70;;
74508;SDS011;62990;46.884;17.436;2022-09-01T11:26:44;8.43;;;3.87;;
74508;SDS011;62990;46.884;17.436;2022-09-01T11:29:52;7.13;;;3.25;;
74508;SDS011;62990;46.884;17.436;2022-09-01T11:33:01;7.00;;;3.17;;
74508;SDS011;62990;46.884;17.436;2022-09-01T11:36:19;7.35;;;3.00;;
74508;SDS011;62990;46.884;17.436;2022-09-01T11:39:32;7.33;;;3.30;;
74508;SDS011;62990;46.884;17.436;2022-09-01T11:42:39;8.03;;;3.23;;
74508;SDS011;62990;46.884;17.436;2022-09-01T11:45:49;7.10;;;3.00;;
74508;SDS011;62990;46.884;17.436;2022-09-01T11:49:06;6.78;;;3.50;;
74508;SDS011;62990;46.884;17.436;2022-09-01T11:52:13;6.68;;;3.00;;
74508;SDS011;62990;46.884;17.436;2022-09-01T11:55:26;6.13;;;2.93;;
74508;SDS011;62990;46.884;17.436;2022-09-01T11:58:32;6.90;;;3.50;;
74508;SDS011;62990;46.884;17.436;2022-09-01T12:01:40;6.53;;;3.00;;
74508;SDS011;62990;46.884;17.436;2022-09-01T12:04:45;8.10;;;2.90;;
74508;SDS011;62990;46.884;17.436;2022-09-01T12:07:50;7.70;;;2.85;;
74508;SDS011;62990;46.884;17.436;2022-09-01T12:11:01;6.47;;;2.77;;
74508;SDS011;62990;46.884;17.436;2022-09-01T12:14:07;7.43;;;2.87;;
74508;SDS011;62990;46.884;17.436;2022-09-01T12:17:18;6.47;;;2.90;;
74508;SDS011;62990;46.884;17.436;2022-09-01T12:20:27;7.28;;;2.40;;
74508;SDS011;62990;46.884;17.436;2022-09-01T12:23:33;6.13;;;2.40;;
74508;SDS011;62990;46.884;17.436;2022-09-01T12:26:39;7.37;;;2.43;;
74508;SDS011;62990;46.884;17.436;2022-09-01T12:29:44;6.30;;;2.30;;
74508;SDS011;62990;46.884;17.436;2022-09-01T12:32:48;6.13;;;2.30;;
74508;SDS011;62990;46.884;17.436;2022-09-01T12:39:23;5.22;;;1.80;;
74508;SDS011;62990;46.884;17.436;2022-09-01T12:42:27;5.20;;;1.70;;
74508;SDS011;62990;46.884;17.436;2022-09-01T12:45:44;5.10;;;1.47;;
74508;SDS011;62990;46.884;17.436;2022-09-01T12:48:49;5.65;;;2.00;;
74508;SDS011;62990;46.884;17.436;2022-09-01T12:55:28;5.50;;;1.75;;
74508;SDS011;62990;46.884;17.436;2022-09-01T12:58:50;5.33;;;1.67;;
74508;SDS011;62990;46.884;17.436;2022-09-01T13:05:36;6.15;;;1.77;;
74508;SDS011;62990;46.884;17.436;2022-09-01T13:08:45;5.57;;;1.70;;
74508;SDS011;62990;46.884;17.436;2022-09-01T13:11:48;5.60;;;1.60;;
74508;SDS011;62990;46.884;17.436;2022-09-01T13:15:09;5.23;;;1.33;;
74508;SDS011;62990;46.884;17.436;2022-09-01T13:18:16;6.60;;;1.90;;
74508;SDS011;62990;46.884;17.436;2022-09-01T13:21:23;5.70;;;1.77;;
74508;SDS011;62990;46.884;17.436;2022-09-01T13:24:29;8.23;;;2.10;;
74508;SDS011;62990;46.884;17.436;2022-09-01T13:27:35;7.22;;;1.70;;
74508;SDS011;62990;46.884;17.436;2022-09-01T13:30:39;5.60;;;1.80;;
74508;SDS011;62990;46.884;17.436;2022-09-01T13:33:45;5.70;;;1.87;;
74508;SDS011;62990;46.884;17.436;2022-09-01T13:37:08;6.68;;;1.98;;
74508;SDS011;62990;46.884;17.436;2022-09-01T13:40:13;6.28;;;2.30;;
74508;SDS011;62990;46.884;17.436;2022-09-01T13:43:18;5.82;;;1.90;;
74508;SDS011;62990;46.884;17.436;2022-09-01T13:46:23;6.97;;;2.10;;
74508;SDS011;62990;46.884;17.436;2022-09-01T13:49:26;6.13;;;1.70;;
74508;SDS011;62990;46.884;17.436;2022-09-01T13:52:51;7.45;;;2.08;;
74508;SDS011;62990;46.884;17.436;2022-09-01T13:55:57;6.30;;;1.75;;
74508;SDS011;62990;46.884;17.436;2022-09-01T13:59:01;5.90;;;1.75;;
74508;SDS011;62990;46.884;17.436;2022-09-01T14:02:05;5.60;;;1.50;;
74508;SDS011;62990;46.884;17.436;2022-09-01T14:05:08;5.30;;;1.63;;
74508;SDS011;62990;46.884;17.436;2022-09-01T14:08:13;5.18;;;1.70;;
74508;SDS011;62990;46.884;17.436;2022-09-01T14:11:19;5.82;;;1.90;;
74508;SDS011;62990;46.884;17.436;2022-09-01T14:14:22;6.40;;;1.80;;
74508;SDS011;62990;46.884;17.436;2022-09-01T14:17:26;7.13;;;1.70;;
74508;SDS011;62990;46.884;17.436;2022-09-01T14:20:32;5.00;;;1.63;;
74508;SDS011;62990;46.884;17.436;2022-09-01T14:23:38;5.70;;;1.65;;
74508;SDS011;62990;46.884;17.436;2022-09-01T14:26:43;5.65;;;1.50;;
74508;SDS011;62990;46.884;17.436;2022-09-01T14:29:47;8.25;;;2.10;;
74508;SDS011;62990;46.884;17.436;2022-09-01T14:32:56;6.43;;;1.73;;
74508;SDS011;62990;46.884;17.436;2022-09-01T14:36:00;6.80;;;1.77;;
74508;SDS011;62990;46.884;17.436;2022-09-01T14:39:05;6.88;;;1.80;;
74508;SDS011;62990;46.884;17.436;2022-09-01T14:42:10;6.30;;;1.63;;
74508;SDS011;62990;46.884;17.436;2022-09-01T14:45:13;5.28;;;1.95;;
74508;SDS011;62990;46.884;17.436;2022-09-01T14:48:19;5.60;;;1.73;;
74508;SDS011;62990;46.884;17.436;2022-09-01T14:51:24;5.43;;;1.83;;
74508;SDS011;62990;46.884;17.436;2022-09-01T14:54:49;6.32;;;2.10;;
74508;SDS011;62990;46.884;17.436;2022-09-01T14:57:54;6.07;;;1.95;;
74508;SDS011;62990;46.884;17.436;2022-09-01T15:00:58;6.00;;;1.83;;
74508;SDS011;62990;46.884;17.436;2022-09-01T15:04:22;5.57;;;1.80;;
74508;SDS011;62990;46.884;17.436;2022-09-01T15:07:25;6.80;;;1.83;;
74508;SDS011;62990;46.884;17.436;2022-09-01T15:10:29;7.07;;;1.80;;
74508;SDS011;62990;46.884;17.436;2022-09-01T15:13:35;6.30;;;2.40;;
74508;SDS011;62990;46.884;17.436;2022-09-01T15:16:39;6.45;;;2.10;;
74508;SDS011;62990;46.884;17.436;2022-09-01T15:19:43;6.00;;;1.90;;
74508;SDS011;62990;46.884;17.436;2022-09-01T15:22:46;6.13;;;1.70;;
74508;SDS011;62990;46.884;17.436;2022-09-01T15:25:50;5.13;;;1.63;;
74508;SDS011;62990;46.884;17.436;2022-09-01T15:28:57;6.63;;;2.10;;
74508;SDS011;62990;46.884;17.436;2022-09-01T15:32:02;5.40;;;1.77;;
74508;SDS011;62990;46.884;17.436;2022-09-01T15:35:06;5.87;;;1.70;;
74508;SDS011;62990;46.884;17.436;2022-09-01T15:38:11;5.70;;;1.90;;
74508;SDS011;62990;46.884;17.436;2022-09-01T15:41:19;6.03;;;1.52;;
74508;SDS011;62990;46.884;17.436;2022-09-01T15:44:26;5.75;;;2.10;;
74508;SDS011;62990;46.884;17.436;2022-09-01T15:47:31;6.60;;;2.00;;
74508;SDS011;62990;46.884;17.436;2022-09-01T15:50:34;6.20;;;1.90;;
74508;SDS011;62990;46.884;17.436;2022-09-01T15:53:38;5.70;;;1.70;;
74508;SDS011;62990;46.884;17.436;2022-09-01T15:56:42;6.40;;;1.92;;
74508;SDS011;62990;46.884;17.436;2022-09-01T15:59:48;5.70;;;2.00;;
74508;SDS011;62990;46.884;17.436;2022-09-01T16:02:52;5.63;;;2.10;;
74508;SDS011;62990;46.884;17.436;2022-09-01T16:05:58;6.07;;;2.13;;
74508;SDS011;62990;46.884;17.436;2022-09-01T16:09:02;5.90;;;2.00;;
74508;SDS011;62990;46.884;17.436;2022-09-01T16:12:06;5.60;;;1.58;;
74508;SDS011;62990;46.884;17.436;2022-09-01T16:15:12;5.93;;;1.90;;
74508;SDS011;62990;46.884;17.436;2022-09-01T16:18:19;5.30;;;1.90;;
74508;SDS011;62990;46.884;17.436;2022-09-01T16:21:38;5.50;;;1.73;;
74508;SDS011;62990;46.884;17.436;2022-09-01T16:24:51;5.87;;;2.30;;
74508;SDS011;62990;46.884;17.436;2022-09-01T16:27:58;6.38;;;1.77;;
74508;SDS011;62990;46.884;17.436;2022-09-01T16:31:09;5.80;;;1.83;;
74508;SDS011;62990;46.884;17.436;2022-09-01T16:34:15;7.43;;;2.20;;
74508;SDS011;62990;46.884;17.436;2022-09-01T16:37:21;7.40;;;1.80;;
74508;SDS011;62990;46.884;17.436;2022-09-01T16:40:35;5.40;;;1.83;;
74508;SDS011;62990;46.884;17.436;2022-09-01T16:43:46;6.15;;;1.92;;
74508;SDS011;62990;46.884;17.436;2022-09-01T16:47:01;6.78;;;1.95;;
74508;SDS011;62990;46.884;17.436;2022-09-01T16:50:14;5.25;;;1.85;;
74508;SDS011;62990;46.884;17.436;2022-09-01T16:53:31;5.40;;;1.80;;
74508;SDS011;62990;46.884;17.436;2022-09-01T16:56:51;5.50;;;1.90;;
74508;SDS011;62990;46.884;17.436;2022-09-01T16:59:59;5.70;;;2.03;;
74508;SDS011;62990;46.884;17.436;2022-09-01T17:03:09;5.55;;;1.70;;
74508;SDS011;62990;46.884;17.436;2022-09-01T17:06:21;5.90;;;2.10;;
74508;SDS011;62990;46.884;17.436;2022-09-01T17:09:33;6.83;;;2.23;;
74508;SDS011;62990;46.884;17.436;2022-09-01T17:12:41;6.43;;;2.10;;
74508;SDS011;62990;46.884;17.436;2022-09-01T17:15:49;6.88;;;2.20;;
74508;SDS011;62990;46.884;17.436;2022-09-01T17:19:00;5.70;;;2.00;;
74508;SDS011;62990;46.884;17.436;2022-09-01T17:22:07;5.70;;;1.80;;
74508;SDS011;62990;46.884;17.436;2022-09-01T17:25:14;6.03;;;2.40;;
74508;SDS011;62990;46.884;17.436;2022-09-01T17:28:29;6.10;;;2.13;;
74508;SDS011;62990;46.884;17.436;2022-09-01T17:31:39;6.55;;;1.92;;
74508;SDS011;62990;46.884;17.436;2022-09-01T17:34:54;6.50;;;2.47;;
74508;SDS011;62990;46.884;17.436;2022-09-01T17:38:16;6.07;;;2.28;;
74508;SDS011;62990;46.884;17.436;2022-09-01T17:41:30;7.00;;;2.13;;
74508;SDS011;62990;46.884;17.436;2022-09-01T17:44:41;7.10;;;2.20;;
74508;SDS011;62990;46.884;17.436;2022-09-01T17:47:54;5.82;;;2.17;;
74508;SDS011;62990;46.884;17.436;2022-09-01T17:51:07;6.47;;;2.35;;
74508;SDS011;62990;46.884;17.436;2022-09-01T17:54:17;6.65;;;2.28;;
74508;SDS011;62990;46.884;17.436;2022-09-01T17:57:29;5.83;;;2.20;;
74508;SDS011;62990;46.884;17.436;2022-09-01T18:00:41;6.03;;;2.13;;
74508;SDS011;62990;46.884;17.436;2022-09-01T18:03:57;7.00;;;2.28;;
74508;SDS011;62990;46.884;17.436;2022-09-01T18:07:17;6.40;;;2.10;;
74508;SDS011;62990;46.884;17.436;2022-09-01T18:10:36;6.03;;;2.13;;
74508;SDS011;62990;46.884;17.436;2022-09-01T18:13:43;6.93;;;2.00;;
74508;SDS011;62990;46.884;17.436;2022-09-01T18:16:56;6.00;;;2.17;;
74508;SDS011;62990;46.884;17.436;2022-09-01T18:20:04;6.63;;;2.00;;
74508;SDS011;62990;46.884;17.436;2022-09-01T18:23:12;6.60;;;2.30;;
74508;SDS011;62990;46.884;17.436;2022-09-01T18:26:20;6.35;;;2.15;;
74508;SDS011;62990;46.884;17.436;2022-09-01T18:29:30;6.17;;;2.20;;
74508;SDS011;62990;46.884;17.436;2022-09-01T18:32:36;6.57;;;2.60;;
74508;SDS011;62990;46.884;17.436;2022-09-01T18:35:44;6.30;;;2.10;;
74508;SDS011;62990;46.884;17.436;2022-09-01T18:38:55;6.60;;;2.22;;
74508;SDS011;62990;46.884;17.436;2022-09-01T18:42:05;7.20;;;1.80;;
74508;SDS011;62990;46.884;17.436;2022-09-01T18:45:16;6.30;;;2.03;;
74508;SDS011;62990;46.884;17.436;2022-09-01T18:48:31;6.57;;;2.20;;
74508;SDS011;62990;46.884;17.436;2022-09-01T18:51:47;5.65;;;2.00;;
74508;SDS011;62990;46.884;17.436;2022-09-01T18:55:05;6.70;;;2.15;;
74508;SDS011;62990;46.884;17.436;2022-09-01T18:58:23;6.53;;;2.30;;
74508;SDS011;62990;46.884;17.436;2022-09-01T19:01:37;7.07;;;2.40;;
74508;SDS011;62990;46.884;17.436;2022-09-01T19:04:49;6.20;;;2.03;;